Ayrshire, Indiana
Current Conditions -  °F | °C
As of 2:55 PM on Thursday 27 Nov 2014 (Local Time) from KHNB Reporting Station
Overcast Overcast  
Wind Chill: 20°   Ceiling: 2300
Heat Index: 28°   Visibility: 7mi
Dew Point: 21°   Wind: 9mph
Humidity: 74%   Direction: 290°WNW
Pressure: 30.43"   Gusts: NA
Location:  38.3488°N, 87.2217°W
Report Text: KHNB 272055Z AUTO 29008KT 7SM OVC023 M02/M06 A3043 RMK AO1 52007
Loading
Personal Weather Stations






























Interactive Weather Map New forecast layout! Learn more

10-Day Weather Forecast

Advertisements
Track Severe Weather on mobile